Taminick, Australia

4:39 PM AEDT on January 24, 2018 (GMT +1100)
Hamilton Park | | Change Station

Elev 670 ft 36.43 °S, 146.24 °E | Updated 1 minute ago

Partly Cloudy
Partly Cloudy
101.5 °F
Feels Like 101 °F
N
3.7
Wind Variable Wind from NNE

Today
High -- | Low -- °F
--% Chance of Precip.
Yesterday
High -- | Low -- °F
Precip. -- in
Pressure 29.71 in
Visibility 6.2 miles
Clouds Scattered Clouds 11000 ft
Heat Index 101 °F
Dew Point 58 °F
Humidity 24%
Rainfall 0.00 in
Snow Depth Not available.
6:22 AM 8:31 PM
Waxing Crescent, 43% visible
METAR YWGT 240500Z AUTO 01014KT 9999 // SCT110 36/09 Q1006
Pressure 29.71 in
Visibility 6.2 miles
Clouds Scattered Clouds 11000 ft
Heat Index 101 °F
Dew Point 58 °F
Humidity 24%
Rainfall 0.00 in
Snow Depth Not available.
6:22 AM 8:31 PM
Waxing Crescent, 43% visible
METAR YWGT 240500Z AUTO 01014KT 9999 // SCT110 36/09 Q1006

Get Severe Weather Alerts

Thanks for signing up!

Be on the lookout for a verification email in your inbox.

You'll start receiving the daily forecast at 6 AM.

×

10-Day Weather Forecast

×

Almanac

Astronomy

Jan. 24, 2018 Rise Set
Actual Time
Civil Twilight
Nautical Twilight
Astronomical Twilight
Moon
Length of Visible Light
Length of Day
Tomorrow will be .
, % of the Moon is Illuminated

Today's Extremes

Country Highs Country Lows

Community

WunderPhotos

Category 6

Welcome to Category 6. This is the collective home for Weather Underground's featured writeups by Dr. Jeff Masters (right), Bob Henson (left), Chris Burt, and other regular contributors.

Nearby

Air Quality

  Air Quality AQ Index Pollutant
Not available.

Snow Depth

Station Depth Elevation

Earthquake Activity

City Distance Mag. Time & Date
Minimum magnitude displayed is 2.5.

Coastal Water Temperatures

Place Temperature

Stations

Nearby Weather Stations

Station Location Temp. Windchill Dew Point Humidity Wind Precip. Elev Updated Type